Time;durP1;ratioP1;P1;durP2;ratioP2;P2;SDS_P1;SDS_P2;PMS_P1;PMS_P2;Temp;Humidity;BMP_temperature;BMP_pressure;BME280_temperature;BME280_humidity;BME280_pressure;Samples;Min_cycle;Max_cycle;Signal;HPM_P1;HPM_P2
2021/03/02 00:01:02;;;;;;;31.90;11.57;;;;;;;2.02;57.31;103499.66;5044372;28;20461;-65
2021/03/02 00:03:29;;;;;;;30.42;11.00;;;;;;;2.12;56.78;103496.63;5046543;28;20119;-65
2021/03/02 00:05:54;;;;;;;27.70;11.40;;;;;;;2.30;56.37;103484.38;5029425;28;20403;-66
2021/03/02 00:08:20;;;;;;;26.60;10.88;;;;;;;2.18;56.93;103495.97;5039282;28;20049;-67
2021/03/02 00:10:47;;;;;;;30.25;11.73;;;;;;;2.33;56.58;103492.25;5045380;28;20088;-67
2021/03/02 00:13:14;;;;;;;53.38;13.23;;;;;;;2.08;57.09;103493.03;5033438;28;20033;-69
2021/03/02 00:15:39;;;;;;;39.08;13.18;;;;;;;2.33;56.35;103488.78;5041973;28;20128;-69
2021/03/02 00:18:07;;;;;;;85.35;13.80;;;;;;;2.33;56.38;103481.94;5037398;28;20033;-67
2021/03/02 00:20:36;;;;;;;63.70;13.77;;;;;;;2.28;56.56;103486.03;5040222;28;20083;-68
2021/03/02 00:23:30;;;;;;;41.92;11.70;;;;;;;2.25;56.68;103485.94;5044562;28;20509;-69
2021/03/02 00:25:58;;;;;;;60.13;13.52;;;;;;;2.19;56.91;103483.13;5021264;28;20040;-67
2021/03/02 00:28:26;;;;;;;64.68;13.77;;;;;;;2.23;57.01;103479.81;5044217;28;20097;-68
2021/03/02 00:30:53;;;;;;;60.92;14.52;;;;;;;2.21;56.81;103476.31;5043373;28;21219;-69
2021/03/02 00:33:21;;;;;;;50.97;13.27;;;;;;;2.39;56.56;103480.38;5043978;28;20641;-65
2021/03/02 00:35:47;;;;;;;73.90;14.73;;;;;;;2.30;56.75;103479.22;5044437;28;20056;-67
2021/03/02 00:38:13;;;;;;;90.55;14.82;;;;;;;2.20;56.44;103482.31;5041735;28;20028;-68
2021/03/02 00:40:39;;;;;;;58.28;13.40;;;;;;;2.21;56.49;103476.31;5044804;28;20036;-69
2021/03/02 00:43:04;;;;;;;57.90;13.85;;;;;;;2.24;56.50;103466.13;5041798;28;20149;-70
2021/03/02 00:45:30;;;;;;;49.67;13.38;;;;;;;2.00;57.10;103470.34;5043677;28;20034;-69
2021/03/02 00:47:56;;;;;;;36.97;12.20;;;;;;;2.16;56.89;103464.94;5045210;28;20518;-66
2021/03/02 00:50:26;;;;;;;40.22;14.80;;;;;;;2.21;56.57;103462.53;5044274;28;20029;-67
2021/03/02 00:52:53;;;;;;;64.72;16.13;;;;;;;2.12;56.67;103465.66;5036252;28;20028;-70
2021/03/02 00:55:22;;;;;;;47.28;13.80;;;;;;;2.15;56.70;103468.34;5055139;28;20139;-68
2021/03/02 00:57:48;;;;;;;69.88;16.23;;;;;;;2.20;56.66;103469.41;5065182;28;20043;-68
2021/03/02 01:00:18;;;;;;;85.10;15.02;;;;;;;2.23;56.75;103468.63;5050725;28;20051;-65
2021/03/02 01:02:44;;;;;;;69.45;14.25;;;;;;;2.15;56.85;103460.59;5047583;28;20490;-66
2021/03/02 01:05:10;;;;;;;40.55;13.25;;;;;;;2.32;56.43;103454.34;5044668;28;20021;-67
2021/03/02 01:07:40;;;;;;;54.05;16.08;;;;;;;2.30;56.62;103465.44;5060098;28;20017;-69
2021/03/02 01:10:08;;;;;;;43.10;13.98;;;;;;;2.32;56.76;103453.47;5032651;28;20043;-67
2021/03/02 01:12:34;;;;;;;51.47;14.23;;;;;;;2.27;56.51;103458.47;5046972;28;20033;-68
2021/03/02 01:15:04;;;;;;;72.95;15.32;;;;;;;2.33;56.37;103458.69;5041938;28;20040;-69
2021/03/02 01:17:30;;;;;;;45.95;13.05;;;;;;;2.16;56.82;103457.22;5045962;28;20037;-66
2021/03/02 01:19:55;;;;;;;54.47;15.63;;;;;;;2.15;56.52;103465.75;5049837;28;20025;-66
2021/03/02 01:22:21;;;;;;;87.90;15.60;;;;;;;2.07;56.37;103451.72;5048073;28;20622;-69
2021/03/02 01:24:46;;;;;;;79.55;14.38;;;;;;;2.00;57.06;103455.75;5046586;28;20039;-65
2021/03/02 01:27:12;;;;;;;39.92;14.65;;;;;;;2.02;56.91;103454.13;5049114;28;20033;-68
2021/03/02 01:29:38;;;;;;;71.30;16.17;;;;;;;1.80;57.39;103457.59;5046231;28;20433;-70
2021/03/02 01:32:03;;;;;;;38.85;14.25;;;;;;;1.88;57.48;103460.44;5045147;28;20479;-68
2021/03/02 01:34:29;;;;;;;66.18;14.00;;;;;;;1.94;57.20;103451.25;5042595;28;20036;-67
2021/03/02 01:36:54;;;;;;;114.65;15.05;;;;;;;1.96;57.01;103446.16;5050105;28;20386;-66
2021/03/02 01:39:20;;;;;;;48.42;13.65;;;;;;;2.19;57.03;103440.94;5042541;28;20475;-69
2021/03/02 01:41:50;;;;;;;94.43;16.30;;;;;;;2.19;56.65;103441.81;5047173;28;20037;-66
2021/03/02 01:44:16;;;;;;;56.47;15.32;;;;;;;2.17;57.05;103440.88;5038347;28;20020;-69
2021/03/02 01:46:42;;;;;;;120.20;16.95;;;;;;;2.05;57.00;103438.75;5044251;28;20051;-69
2021/03/02 01:49:08;;;;;;;83.22;14.45;;;;;;;2.04;56.93;103434.44;5046207;28;20032;-66
2021/03/02 01:51:33;;;;;;;81.75;13.27;;;;;;;1.94;57.10;103435.75;5058156;28;20370;-70
2021/03/02 01:53:59;;;;;;;41.70;12.23;;;;;;;1.83;57.09;103436.19;5050058;28;20021;-69
2021/03/02 01:56:25;;;;;;;34.40;13.95;;;;;;;1.89;57.18;103429.56;5046108;28;20048;-66
2021/03/02 01:58:50;;;;;;;42.40;14.32;;;;;;;1.91;57.31;103430.50;5047826;28;20037;-68
2021/03/02 02:01:17;;;;;;;84.35;14.07;;;;;;;1.85;57.62;103425.13;5046207;28;20036;-68
2021/03/02 02:04:00;;;;;;;53.22;14.15;;;;;;;1.84;57.23;103430.19;5045280;28;20517;-67
2021/03/02 02:06:50;;;;;;;34.30;13.32;;;;;;;1.93;57.51;103428.88;5042446;28;20099;-68
2021/03/02 02:09:22;;;;;;;74.90;13.85;;;;;;;2.04;56.70;103429.28;5040209;28;20166;-67
2021/03/02 02:11:59;;;;;;;76.00;16.27;;;;;;;1.90;57.26;103428.72;5043410;28;20037;-71
2021/03/02 02:14:41;;;;;;;92.00;16.13;;;;;;;1.82;57.44;103426.69;5056504;28;20037;-67
2021/03/02 02:17:17;;;;;;;56.70;14.90;;;;;;;1.96;57.16;103417.78;5044259;28;20116;-69
2021/03/02 02:19:48;;;;;;;42.80;14.50;;;;;;;2.09;57.06;103421.69;5045243;28;20474;-65
2021/03/02 02:22:29;;;;;;;84.30;14.70;;;;;;;2.15;56.77;103421.88;5043315;28;20029;-71
2021/03/02 02:24:58;;;;;;;47.50;12.63;;;;;;;2.12;56.94;103425.25;5057181;28;20041;-71
2021/03/02 02:27:27;;;;;;;121.07;16.25;;;;;;;2.16;56.35;103426.25;5045722;28;20171;-70
2021/03/02 02:29:53;;;;;;;48.03;14.73;;;;;;;2.08;56.68;103423.38;5047399;28;20025;-66
2021/03/02 02:32:19;;;;;;;104.03;16.42;;;;;;;1.82;57.41;103427.59;5044593;28;20082;-69
2021/03/02 02:34:45;;;;;;;49.65;14.88;;;;;;;1.87;57.13;103422.59;5044435;28;20037;-67
2021/03/02 02:37:12;;;;;;;34.00;14.02;;;;;;;1.95;57.23;103436.63;5047445;28;20117;-69
2021/03/02 02:39:39;;;;;;;39.25;14.45;;;;;;;1.88;57.19;103429.50;5028694;28;20029;-66
2021/03/02 02:42:05;;;;;;;53.53;12.45;;;;;;;1.99;56.87;103437.63;5046314;28;20483;-67
2021/03/02 02:44:33;;;;;;;30.25;12.90;;;;;;;1.82;56.88;103424.09;5043568;28;20048;-68
2021/03/02 02:46:59;;;;;;;56.40;13.88;;;;;;;1.97;56.61;103439.28;5029809;28;20048;-69
2021/03/02 02:49:26;;;;;;;53.63;14.65;;;;;;;1.96;57.17;103432.38;5047672;28;20028;-66
2021/03/02 02:51:52;;;;;;;49.55;14.40;;;;;;;1.72;57.58;103433.22;5046531;28;20594;-69
2021/03/02 02:54:18;;;;;;;45.85;13.82;;;;;;;1.68;57.59;103431.31;5044633;28;20030;-67
2021/03/02 02:56:45;;;;;;;29.98;12.88;;;;;;;1.79;57.43;103430.03;5046157;28;20967;-65
2021/03/02 02:59:27;;;;;;;69.50;14.15;;;;;;;1.82;57.29;103425.00;5044622;28;20048;-66
2021/03/02 03:02:08;;;;;;;28.27;11.68;;;;;;;1.84;57.20;103425.94;5046439;28;20041;-67
2021/03/02 03:04:39;;;;;;;37.22;12.35;;;;;;;1.91;56.72;103425.34;5044094;28;20051;-66
2021/03/02 03:07:14;;;;;;;20.87;8.87;;;;;;;1.96;56.83;103427.22;5046839;28;20104;-69
2021/03/02 03:09:42;;;;;;;31.30;12.55;;;;;;;1.86;56.98;103426.88;5046234;28;20029;-66
2021/03/02 03:12:08;;;;;;;28.27;11.13;;;;;;;1.79;56.82;103435.19;5028119;28;20211;-67
2021/03/02 03:14:41;;;;;;;27.85;10.63;;;;;;;1.69;56.98;103433.09;5042327;28;20120;-66
2021/03/02 03:17:10;;;;;;;34.53;11.65;;;;;;;1.76;56.97;103429.94;5028180;28;20033;-66
2021/03/02 03:19:37;;;;;;;45.20;12.02;;;;;;;1.62;57.45;103429.41;5057695;28;20388;-65
2021/03/02 03:22:03;;;;;;;37.92;11.57;;;;;;;1.71;57.01;103432.34;5047252;28;20029;-68
2021/03/02 03:24:30;;;;;;;38.80;13.25;;;;;;;1.79;56.88;103424.88;5043039;28;20021;-65
2021/03/02 03:26:57;;;;;;;45.47;12.55;;;;;;;1.72;57.39;103425.47;5045503;28;20060;-67
2021/03/02 03:29:25;;;;;;;96.28;15.18;;;;;;;1.60;57.37;103428.47;5045594;28;20176;-67
2021/03/02 03:31:51;;;;;;;39.38;13.55;;;;;;;1.71;57.15;103437.50;5042509;28;20053;-66
2021/03/02 03:34:17;;;;;;;44.60;11.77;;;;;;;1.86;56.96;103431.16;5042277;28;20491;-67
2021/03/02 03:36:43;;;;;;;29.00;11.93;;;;;;;1.81;57.04;103432.69;5042513;28;20028;-70
2021/03/02 03:39:09;;;;;;;38.35;12.98;;;;;;;1.91;56.81;103429.63;5057054;28;20034;-68
2021/03/02 03:41:36;;;;;;;35.83;12.02;;;;;;;1.95;56.46;103428.91;5044964;28;20836;-66
2021/03/02 03:44:02;;;;;;;50.83;12.98;;;;;;;1.86;56.66;103426.88;5042008;28;20450;-68
2021/03/02 03:46:28;;;;;;;79.70;14.23;;;;;;;1.99;56.39;103430.78;5042103;28;20056;-66
2021/03/02 03:48:53;;;;;;;37.00;12.35;;;;;;;1.78;56.89;103425.72;5042647;28;20021;-66
2021/03/02 03:51:23;;;;;;;30.42;13.35;;;;;;;1.88;56.69;103424.34;5044020;28;20044;-68
2021/03/02 03:53:49;;;;;;;33.97;12.02;;;;;;;1.94;56.52;103424.56;5050990;28;20048;-66
2021/03/02 03:56:15;;;;;;;58.45;13.13;;;;;;;2.00;56.30;103426.50;5061602;28;20475;-67
2021/03/02 03:58:42;;;;;;;37.63;13.93;;;;;;;1.94;56.40;103427.16;5025841;28;20044;-66
2021/03/02 04:01:08;;;;;;;24.00;10.77;;;;;;;2.02;56.38;103428.31;5043448;28;20761;-68
2021/03/02 04:03:34;;;;;;;56.25;13.85;;;;;;;2.00;56.18;103434.22;5058020;28;20032;-68
2021/03/02 04:06:01;;;;;;;60.90;13.25;;;;;;;1.60;57.26;103435.34;5045148;28;20635;-67
2021/03/02 04:08:28;;;;;;;64.50;14.55;;;;;;;1.87;56.83;103432.91;5028042;28;20033;-67
2021/03/02 04:10:54;;;;;;;71.07;14.43;;;;;;;1.83;56.18;103428.47;5041573;28;20036;-68
2021/03/02 04:13:20;;;;;;;44.63;12.73;;;;;;;1.76;56.51;103419.63;5045121;28;20029;-70
2021/03/02 04:15:46;;;;;;;39.10;13.40;;;;;;;1.62;57.18;103418.22;5044826;28;20071;-66
2021/03/02 04:18:16;;;;;;;49.70;14.27;;;;;;;1.73;56.81;103415.22;5027220;28;20041;-70
2021/03/02 04:20:44;;;;;;;29.25;12.52;;;;;;;1.75;56.81;103412.69;5043295;28;20118;-71
2021/03/02 04:23:10;;;;;;;57.15;13.65;;;;;;;1.83;56.43;103413.84;5046889;28;20037;-68
2021/03/02 04:25:36;;;;;;;25.75;11.32;;;;;;;1.74;56.80;103410.94;5025489;28;20652;-68
2021/03/02 04:28:04;;;;;;;51.47;12.57;;;;;;;1.69;56.84;103410.78;5045885;28;20055;-68
2021/03/02 04:30:29;;;;;;;67.65;13.90;;;;;;;1.73;56.30;103401.47;5029946;28;20032;-68
2021/03/02 04:32:55;;;;;;;50.67;13.07;;;;;;;1.69;56.72;103413.34;5047067;28;20025;-67
2021/03/02 04:35:22;;;;;;;75.93;13.57;;;;;;;1.73;56.33;103406.63;5042432;28;20043;-67
2021/03/02 04:37:47;;;;;;;102.00;13.85;;;;;;;1.64;56.44;103408.81;5046491;28;20033;-69
2021/03/02 04:40:13;;;;;;;60.47;12.93;;;;;;;1.58;56.92;103403.47;5046314;28;20532;-73
2021/03/02 04:42:39;;;;;;;77.38;13.10;;;;;;;1.45;56.99;103402.97;5043601;28;20024;-67
2021/03/02 04:45:07;;;;;;;44.45;12.05;;;;;;;1.35;57.05;103402.50;5042837;28;20128;-68
2021/03/02 04:47:33;;;;;;;55.55;12.27;;;;;;;1.20;57.33;103411.41;5057931;28;20608;-64
2021/03/02 04:49:59;;;;;;;33.53;11.25;;;;;;;1.22;57.40;103412.34;5045776;28;20672;-67
2021/03/02 04:52:25;;;;;;;45.83;12.63;;;;;;;1.29;57.47;103398.88;5042375;28;20033;-66
2021/03/02 04:54:50;;;;;;;117.70;15.15;;;;;;;1.27;56.96;103412.53;5046665;28;20104;-66
2021/03/02 04:57:16;;;;;;;49.67;12.68;;;;;;;1.30;57.25;103404.91;5045127;28;20668;-67
2021/03/02 04:59:41;;;;;;;35.75;12.35;;;;;;;1.34;57.23;103403.34;5044793;28;20040;-68
2021/03/02 05:02:07;;;;;;;107.47;14.48;;;;;;;1.48;56.84;103402.22;5042380;28;20036;-67
2021/03/02 05:04:32;;;;;;;57.40;13.00;;;;;;;1.56;56.99;103407.69;5045506;28;20040;-66
2021/03/02 05:06:58;;;;;;;53.13;12.82;;;;;;;1.67;56.82;103398.66;5044062;28;20032;-68
2021/03/02 05:09:23;;;;;;;58.97;13.55;;;;;;;1.71;56.37;103403.97;5043725;28;20033;-67
2021/03/02 05:11:49;;;;;;;57.80;12.93;;;;;;;1.63;56.48;103401.91;5044228;28;20119;-67
2021/03/02 05:14:14;;;;;;;48.78;12.80;;;;;;;1.54;56.76;103405.03;5044413;28;20112;-68
2021/03/02 05:16:40;;;;;;;104.57;14.68;;;;;;;1.50;56.42;103396.28;5042614;28;20091;-70
2021/03/02 05:19:05;;;;;;;26.77;10.75;;;;;;;1.49;56.82;103399.69;5041016;28;20033;-68
2021/03/02 05:21:31;;;;;;;70.57;12.50;;;;;;;1.58;56.51;103395.72;5027068;28;20040;-67
2021/03/02 05:23:56;;;;;;;24.90;11.73;;;;;;;1.57;56.60;103397.41;5043158;28;20033;-67
2021/03/02 05:26:22;;;;;;;96.55;14.10;;;;;;;1.64;56.37;103403.66;5039914;28;20443;-66
2021/03/02 05:28:48;;;;;;;37.58;11.70;;;;;;;1.68;56.58;103396.09;5042904;28;20047;-66
2021/03/02 05:31:14;;;;;;;38.17;11.27;;;;;;;1.60;56.83;103386.34;5041830;28;20166;-66
2021/03/02 05:33:40;;;;;;;91.28;14.32;;;;;;;1.62;56.32;103384.72;5041185;28;20139;-67
2021/03/02 05:36:06;;;;;;;30.13;12.77;;;;;;;1.52;56.50;103384.34;5039154;28;20113;-66
2021/03/02 05:38:32;;;;;;;68.22;12.90;;;;;;;1.56;56.39;103381.91;5040775;28;20022;-67
2021/03/02 05:40:58;;;;;;;34.25;12.90;;;;;;;1.57;56.68;103384.50;5041904;28;20066;-67
2021/03/02 05:43:23;;;;;;;56.10;12.82;;;;;;;1.31;57.06;103378.34;5060198;28;20043;-65
2021/03/02 05:45:49;;;;;;;55.65;13.38;;;;;;;1.51;56.50;103379.16;5045609;28;20130;-67
2021/03/02 05:48:15;;;;;;;61.22;13.88;;;;;;;1.40;56.84;103373.56;5044997;28;20029;-68
2021/03/02 05:50:40;;;;;;;66.97;13.45;;;;;;;1.44;56.88;103380.63;5044070;28;20049;-68
2021/03/02 05:53:07;;;;;;;86.15;16.27;;;;;;;1.40;56.85;103381.31;5045876;28;20028;-66
2021/03/02 05:55:35;;;;;;;37.70;13.75;;;;;;;1.52;56.88;103374.03;5043659;28;20101;-66
2021/03/02 05:58:04;;;;;;;69.15;14.95;;;;;;;1.44;57.14;103380.63;5030418;28;20052;-67
2021/03/02 06:00:31;;;;;;;52.97;14.15;;;;;;;1.25;57.13;103386.69;5046202;28;20037;-69
2021/03/02 06:02:57;;;;;;;31.73;12.70;;;;;;;1.48;56.88;103385.06;5046508;28;20140;-66
2021/03/02 06:05:22;;;;;;;79.45;14.40;;;;;;;1.54;56.46;103386.97;5042776;28;20152;-66
2021/03/02 06:07:48;;;;;;;55.67;13.40;;;;;;;1.48;56.40;103387.66;5045164;28;20483;-68
2021/03/02 06:10:15;;;;;;;47.65;12.23;;;;;;;1.39;56.85;103396.66;5044748;28;20174;-68
2021/03/02 06:12:55;;;;;;;69.07;14.10;;;;;;;1.49;56.41;103394.53;5043853;28;20498;-68
2021/03/02 06:15:22;;;;;;;52.08;12.68;;;;;;;1.56;56.52;103400.81;5026021;28;20056;-67
2021/03/02 06:18:10;;;;;;;46.72;13.15;;;;;;;1.44;57.03;103400.31;5044510;28;20517;-66
2021/03/02 06:20:37;;;;;;;32.63;11.30;;;;;;;1.38;56.54;103400.94;5043727;28;20037;-66
2021/03/02 06:23:22;;;;;;;71.05;11.50;;;;;;;1.43;56.05;103408.91;5046134;28;20028;-68
2021/03/02 06:25:47;;;;;;;41.03;12.50;;;;;;;1.38;56.20;103405.22;5045396;28;20037;-65
2021/03/02 06:28:14;;;;;;;41.67;11.32;;;;;;;1.31;56.38;103405.00;5045508;28;20064;-68
2021/03/02 06:30:39;;;;;;;60.25;11.85;;;;;;;1.23;56.26;103406.38;5029180;28;20040;-67
2021/03/02 06:33:17;;;;;;;71.47;12.93;;;;;;;0.99;57.38;103411.44;5045632;28;20024;-67
2021/03/02 06:35:44;;;;;;;72.75;12.48;;;;;;;1.29;56.29;103416.06;5045694;28;20043;-68
2021/03/02 06:38:10;;;;;;;62.60;13.18;;;;;;;1.22;56.67;103408.91;5046050;28;20045;-66
2021/03/02 06:40:43;;;;;;;80.43;12.32;;;;;;;1.22;56.58;103414.94;5046023;28;20025;-67
2021/03/02 06:43:28;;;;;;;60.47;14.25;;;;;;;1.40;56.44;103413.91;5045302;28;20044;-67
2021/03/02 06:45:53;;;;;;;87.70;13.30;;;;;;;1.36;56.20;103406.88;5046040;28;20039;-66
2021/03/02 06:48:19;;;;;;;26.83;12.15;;;;;;;1.39;56.31;103417.28;5050956;28;20475;-67
2021/03/02 06:50:45;;;;;;;97.10;12.52;;;;;;;1.31;55.95;103414.41;5044705;28;20056;-67
2021/03/02 06:53:12;;;;;;;24.10;10.57;;;;;;;1.27;56.50;103418.56;5046530;28;20037;-67
2021/03/02 06:55:39;;;;;;;52.90;12.00;;;;;;;1.38;56.21;103419.00;5046343;28;20421;-67
2021/03/02 06:58:19;;;;;;;23.65;9.82;;;;;;;1.42;56.40;103423.47;5046297;28;20040;-66
2021/03/02 07:00:46;;;;;;;40.75;11.07;;;;;;;1.36;56.50;103428.34;5048609;28;20029;-67
2021/03/02 07:03:30;;;;;;;60.83;10.88;;;;;;;1.28;56.19;103428.06;5067121;28;20037;-67
2021/03/02 07:06:04;;;;;;;49.65;12.13;;;;;;;1.29;55.90;103426.38;5050278;28;20041;-69
2021/03/02 07:08:34;;;;;;;46.13;11.27;;;;;;;1.11;56.53;103429.09;5052877;28;20063;-68
2021/03/02 07:11:04;;;;;;;47.42;10.75;;;;;;;1.32;56.19;103431.63;5053510;28;20052;-66
2021/03/02 07:13:31;;;;;;;31.85;10.05;;;;;;;1.37;56.36;103424.06;5046571;28;20139;-67
2021/03/02 07:15:58;;;;;;;45.70;11.63;;;;;;;1.45;55.59;103421.00;5042780;28;20530;-68
2021/03/02 07:18:28;;;;;;;38.17;9.18;;;;;;;1.46;55.70;103425.38;5046350;28;20108;-67
2021/03/02 07:21:00;;;;;;;81.38;12.05;;;;;;;1.44;55.99;103424.44;5045255;28;20040;-66
2021/03/02 07:23:27;;;;;;;51.80;11.13;;;;;;;1.50;55.33;103419.47;5048034;28;20142;-67
2021/03/02 07:25:55;;;;;;;46.40;11.20;;;;;;;1.47;55.54;103427.13;5047159;28;20113;-69
2021/03/02 07:28:27;;;;;;;28.40;10.93;;;;;;;1.41;56.11;103416.56;5050431;28;20033;-65
2021/03/02 07:30:54;;;;;;;31.25;9.65;;;;;;;1.62;55.93;103413.06;5052542;28;20467;-66
2021/03/02 07:33:20;;;;;;;40.33;11.23;;;;;;;1.50;55.98;103416.03;5048681;28;20032;-66
2021/03/02 07:35:46;;;;;;;49.22;12.50;;;;;;;1.50;55.81;103422.06;5027452;28;20043;-65
2021/03/02 07:38:20;;;;;;;27.85;8.70;;;;;;;1.72;55.75;103415.16;5045975;28;20041;-68
2021/03/02 07:40:54;;;;;;;37.95;10.57;;;;;;;1.37;55.80;103408.63;5044965;28;20045;-65
2021/03/02 07:43:25;;;;;;;36.50;10.85;;;;;;;1.28;56.28;103419.44;5048068;28;20253;-67
2021/03/02 07:45:51;;;;;;;29.90;10.10;;;;;;;1.57;55.73;103412.88;5047891;28;20056;-68
2021/03/02 07:48:31;;;;;;;25.67;10.25;;;;;;;1.38;56.24;103423.28;5051469;28;20033;-68
2021/03/02 07:51:26;;;;;;;31.67;11.15;;;;;;;1.61;55.74;103424.19;5046090;28;20037;-65
2021/03/02 07:54:12;;;;;;;31.45;11.85;;;;;;;1.57;56.18;103428.34;5033328;28;20056;-66
2021/03/02 07:56:37;;;;;;;41.35;11.85;;;;;;;1.32;56.83;103426.47;5045701;28;20112;-68
2021/03/02 07:59:09;;;;;;;48.05;13.73;;;;;;;1.79;54.83;103424.00;5047679;28;20190;-66
2021/03/02 08:01:35;;;;;;;42.80;13.10;;;;;;;1.98;54.94;103421.28;5047044;28;20039;-67
2021/03/02 08:04:24;;;;;;;49.78;13.40;;;;;;;2.14;54.85;103422.72;5029721;28;20462;-67
2021/03/02 08:06:50;;;;;;;30.38;12.93;;;;;;;2.28;54.20;103418.94;5029115;28;20040;-69
2021/03/02 08:09:25;;;;;;;65.00;14.23;;;;;;;2.19;53.25;103417.72;5044050;28;20487;-66
2021/03/02 08:11:52;;;;;;;36.22;13.27;;;;;;;2.42;54.54;103428.84;5045625;28;20053;-66
2021/03/02 08:14:17;;;;;;;34.80;14.23;;;;;;;2.75;53.77;103427.44;5029743;28;20120;-68
2021/03/02 08:17:02;;;;;;;41.00;15.30;;;;;;;3.32;52.70;103433.63;5043845;28;20071;-67
2021/03/02 08:19:41;;;;;;;42.28;15.70;;;;;;;3.51;52.30;103433.31;5046559;28;20029;-69
2021/03/02 08:22:33;;;;;;;39.53;14.50;;;;;;;3.38;52.02;103438.94;5057415;28;20044;-67
2021/03/02 08:25:04;;;;;;;38.58;12.95;;;;;;;3.31;51.99;103437.88;5058797;28;20063;-69
2021/03/02 08:27:48;;;;;;;36.30;13.97;;;;;;;3.48;51.63;103433.25;5045256;28;20025;-67
2021/03/02 08:30:21;;;;;;;35.58;12.88;;;;;;;3.77;50.95;103435.84;5043932;28;20322;-67
2021/03/02 08:32:48;;;;;;;29.38;12.57;;;;;;;3.45;50.91;103430.59;5042534;28;20106;-68
2021/03/02 08:35:46;;;;;;;31.15;12.68;;;;;;;3.50;50.35;103431.59;5045596;28;20025;-66
2021/03/02 08:38:14;;;;;;;32.90;12.30;;;;;;;3.98;49.98;103433.88;5009610;28;20189;-67
2021/03/02 08:40:42;;;;;;;32.22;14.32;;;;;;;4.29;50.30;103429.53;5042633;28;20041;-67
2021/03/02 08:43:18;;;;;;;36.63;13.10;;;;;;;4.30;49.41;103426.13;5040721;28;20075;-67
2021/03/02 08:45:50;;;;;;;39.03;12.73;;;;;;;4.59;49.54;103428.63;5042790;28;20032;-69
2021/03/02 08:48:29;;;;;;;34.45;13.77;;;;;;;5.23;48.30;103430.25;5060110;28;20060;-66
2021/03/02 08:51:04;;;;;;;29.38;13.38;;;;;;;5.99;45.39;103430.13;5044660;28;20112;-66
2021/03/02 08:53:41;;;;;;;31.65;11.13;;;;;;;6.42;44.81;103432.72;5043768;28;20794;-66
2021/03/02 08:56:19;;;;;;;34.03;10.82;;;;;;;7.99;42.22;103433.38;5059377;28;20108;-66
2021/03/02 08:58:49;;;;;;;31.27;11.45;;;;;;;9.04;39.78;103423.97;5027993;28;20048;-70
2021/03/02 09:01:20;;;;;;;30.17;11.93;;;;;;;9.03;37.29;103420.50;5043965;28;20095;-67
2021/03/02 09:03:46;;;;;;;28.00;11.07;;;;;;;8.62;38.97;103425.34;5057372;28;20064;-68
2021/03/02 09:06:23;;;;;;;32.17;11.88;;;;;;;8.82;40.28;103422.94;5040524;28;20049;-68
2021/03/02 09:09:09;;;;;;;31.25;12.40;;;;;;;8.81;39.68;103414.25;5041732;28;20116;-66
2021/03/02 09:11:39;;;;;;;27.98;11.95;;;;;;;8.66;40.59;103427.97;5040287;28;20093;-67
2021/03/02 09:14:17;;;;;;;30.35;11.35;;;;;;;8.27;39.62;103423.25;5056272;28;20043;-69
2021/03/02 09:16:50;;;;;;;30.88;12.32;;;;;;;7.98;40.50;103418.63;5042006;28;20649;-67
2021/03/02 09:19:15;;;;;;;25.30;11.00;;;;;;;7.49;41.51;103416.22;5044980;28;20037;-66
2021/03/02 09:21:47;;;;;;;27.67;11.32;;;;;;;7.66;41.85;103416.47;5041462;28;20486;-66
2021/03/02 09:24:15;;;;;;;;;;;;;;;8.08;41.67;103417.84;5024916;28;20048;-68
2021/03/02 09:26:53;;;;;;;25.60;12.25;;;;;;;8.79;41.34;103415.97;5044074;28;19966;-69
2021/03/02 09:29:21;;;;;;;31.83;12.73;;;;;;;8.77;39.48;103415.94;5043328;28;20087;-68
2021/03/02 09:31:48;;;;;;;30.13;11.73;;;;;;;8.62;39.18;103428.81;5029148;28;20044;-68
2021/03/02 09:34:14;;;;;;;31.88;13.32;;;;;;;8.42;40.02;103428.63;5039902;28;20033;-68
2021/03/02 09:36:41;;;;;;;23.92;12.43;;;;;;;8.53;40.36;103419.16;5040706;28;20723;-67
2021/03/02 09:39:21;;;;;;;27.70;12.55;;;;;;;8.79;39.46;103426.41;5025471;28;20042;-67
2021/03/02 09:41:47;;;;;;;30.48;12.93;;;;;;;8.80;40.19;103425.53;5042590;28;20853;-67
2021/03/02 09:44:28;;;;;;;29.88;13.35;;;;;;;8.54;40.36;103423.53;5040486;28;20645;-67
2021/03/02 09:46:57;;;;;;;32.63;14.05;;;;;;;8.56;39.25;103427.03;5042019;28;20055;-67
2021/03/02 09:49:38;;;;;;;26.33;13.45;;;;;;;9.04;40.66;103416.16;5055176;28;20034;-68
2021/03/02 09:52:23;;;;;;;28.88;13.43;;;;;;;9.08;41.12;103413.56;5040204;28;20040;-66
2021/03/02 09:55:17;;;;;;;31.17;13.73;;;;;;;9.22;39.58;103411.03;5039722;28;20041;-66
2021/03/02 09:58:06;;;;;;;27.80;13.77;;;;;;;9.56;37.78;103403.38;5040836;28;20486;-67
2021/03/02 10:00:38;;;;;;;33.15;13.25;;;;;;;9.49;38.82;103399.00;5040126;28;20386;-65
2021/03/02 10:03:08;;;;;;;31.83;13.68;;;;;;;9.19;38.91;103403.22;5038481;28;20029;-67
2021/03/02 10:05:39;;;;;;;32.08;14.20;;;;;;;9.65;39.77;103400.81;5042346;28;20044;-68
2021/03/02 10:08:37;;;;;;;24.92;12.82;;;;;;;9.78;38.85;103405.22;5040210;28;20045;-68
2021/03/02 10:11:04;;;;;;;29.88;13.50;;;;;;;10.26;37.82;103401.88;5027276;28;20064;-67
2021/03/02 10:13:34;;;;;;;32.70;14.13;;;;;;;10.12;38.04;103397.50;5043837;28;20033;-67
2021/03/02 10:16:30;;;;;;;34.63;14.40;;;;;;;10.46;37.23;103400.19;5041397;28;20032;-67
2021/03/02 10:18:58;;;;;;;26.83;13.00;;;;;;;10.47;38.69;103401.94;5028994;28;20041;-65
2021/03/02 10:21:48;;;;;;;29.73;14.07;;;;;;;10.53;37.87;103408.91;5055982;28;20060;-64
2021/03/02 10:24:19;;;;;;;29.30;13.80;;;;;;;10.64;37.27;103400.19;5033968;28;20091;-67
2021/03/02 10:26:45;;;;;;;26.55;14.20;;;;;;;10.40;37.45;103395.81;5038802;28;20048;-67
2021/03/02 10:29:11;;;;;;;30.45;14.40;;;;;;;10.22;37.72;103403.66;5038275;28;20033;-68
2021/03/02 10:31:36;;;;;;;31.52;14.27;;;;;;;10.58;37.38;103400.19;5027043;28;20102;-67
2021/03/02 10:34:10;;;;;;;31.67;14.20;;;;;;;10.81;37.30;103399.31;5040424;28;20410;-67
2021/03/02 10:36:40;;;;;;;29.00;14.13;;;;;;;11.11;36.86;103405.44;5045053;28;20033;-66
2021/03/02 10:39:10;;;;;;;36.75;16.05;;;;;;;10.70;36.67;103403.66;5041665;28;20021;-67
2021/03/02 10:41:36;;;;;;;31.60;14.77;;;;;;;10.92;36.19;103400.19;5040634;28;20057;-66
2021/03/02 10:44:03;;;;;;;28.42;15.15;;;;;;;11.29;36.99;103394.91;5042198;28;20033;-66
2021/03/02 10:46:30;;;;;;;31.50;14.07;;;;;;;11.25;37.95;103391.41;5044697;28;20047;-67
2021/03/02 10:48:56;;;;;;;34.90;15.45;;;;;;;11.31;35.40;103393.16;5043290;28;20075;-68
2021/03/02 10:51:23;;;;;;;37.67;16.52;;;;;;;11.50;35.67;103393.09;5045394;28;20033;-66
2021/03/02 10:53:48;;;;;;;34.60;15.57;;;;;;;11.60;35.98;103386.94;5045909;28;20060;-65
2021/03/02 10:56:15;;;;;;;29.13;15.75;;;;;;;11.63;36.16;103384.28;5046078;28;20037;-67
2021/03/02 10:58:41;;;;;;;43.13;15.52;;;;;;;11.73;36.26;103383.38;5044814;28;20124;-68
2021/03/02 11:01:07;;;;;;;33.47;14.55;;;;;;;11.85;35.54;103385.97;5045357;28;20039;-68
2021/03/02 11:03:33;;;;;;;25.17;13.82;;;;;;;11.68;34.48;103385.13;5046191;28;20033;-67
2021/03/02 11:05:58;;;;;;;28.88;15.30;;;;;;;11.44;35.05;103384.38;5046186;28;20067;-68
2021/03/02 11:08:24;;;;;;;33.10;15.90;;;;;;;11.44;35.14;103383.47;5044083;28;20040;-66
2021/03/02 11:10:50;;;;;;;33.20;15.13;;;;;;;11.48;34.93;103379.13;5046575;28;20044;-65
2021/03/02 11:13:16;;;;;;;31.98;13.55;;;;;;;11.75;35.11;103372.88;5058778;28;20041;-65
2021/03/02 11:15:42;;;;;;;32.67;15.32;;;;;;;11.87;34.24;103371.09;5044334;28;20036;-67
2021/03/02 11:18:08;;;;;;;30.30;14.63;;;;;;;11.65;35.49;103369.44;5028781;28;20045;-67
2021/03/02 11:20:35;;;;;;;33.80;14.13;;;;;;;11.77;34.24;103368.50;5045645;28;20123;-67
2021/03/02 11:23:01;;;;;;;27.92;14.55;;;;;;;11.96;34.58;103364.06;5045983;28;20394;-67
2021/03/02 11:25:27;;;;;;;34.95;15.30;;;;;;;11.75;35.28;103365.03;5044695;28;20044;-67
2021/03/02 11:27:52;;;;;;;32.28;14.70;;;;;;;12.03;34.92;103363.16;5044303;28;20041;-66